createdAt,value
2023-05-18T00:00:55.704Z,98.30
2023-05-18T00:03:24.685Z,98.40
2023-05-18T00:05:53.348Z,98.40
2023-05-18T00:08:22.095Z,98.60
2023-05-18T00:10:50.712Z,98.70
2023-05-18T00:13:19.447Z,98.70
2023-05-18T00:15:49.318Z,98.80
2023-05-18T00:18:18.105Z,98.90
2023-05-18T00:20:46.816Z,99.00
2023-05-18T00:23:16.634Z,99.10
2023-05-18T00:25:45.254Z,99.20
2023-05-18T00:28:13.973Z,99.40
2023-05-18T00:30:42.482Z,99.60
2023-05-18T00:33:12.632Z,99.80
2023-05-18T00:35:41.134Z,99.90
2023-05-18T00:38:09.856Z,99.90
2023-05-18T00:40:38.504Z,99.90
2023-05-18T00:43:07.435Z,99.90
2023-05-18T00:45:36.029Z,99.90
2023-05-18T00:48:05.180Z,99.90
2023-05-18T00:50:35.207Z,99.90
2023-05-18T00:53:04.146Z,99.90
2023-05-18T00:55:32.912Z,99.90
2023-05-18T00:58:02.566Z,99.90
2023-05-18T01:00:31.253Z,99.90
2023-05-18T01:03:00.580Z,99.90
2023-05-18T01:05:29.287Z,99.90
2023-05-18T01:07:59.602Z,99.90
2023-05-18T01:10:28.390Z,99.90
2023-05-18T01:13:02.389Z,99.90
2023-05-18T01:15:35.191Z,99.90
2023-05-18T01:18:15.356Z,99.90
2023-05-18T01:20:48.359Z,99.90
2023-05-18T01:23:45.039Z,99.90
2023-05-18T01:26:24.859Z,99.90
2023-05-18T01:28:54.868Z,99.90
2023-05-18T01:31:23.955Z,99.90
2023-05-18T01:33:52.826Z,99.90
2023-05-18T01:36:21.620Z,99.90
2023-05-18T01:38:50.849Z,99.90
2023-05-18T01:41:24.226Z,99.90
2023-05-18T01:43:57.703Z,99.90
2023-05-18T01:46:36.387Z,99.90
2023-05-18T01:49:11.413Z,99.90
2023-05-18T01:51:45.894Z,99.90
2023-05-18T01:54:20.199Z,99.90
2023-05-18T01:56:54.003Z,99.90
2023-05-18T01:59:24.136Z,99.90
2023-05-18T02:01:59.533Z,99.90
2023-05-18T02:04:29.173Z,99.90
2023-05-18T02:06:58.318Z,99.90
2023-05-18T02:09:27.293Z,99.90
2023-05-18T02:11:57.347Z,99.90
2023-05-18T02:14:26.365Z,99.90
2023-05-18T02:16:55.026Z,99.90
2023-05-18T02:19:25.520Z,99.90
2023-05-18T02:21:54.322Z,99.90
2023-05-18T02:24:23.549Z,99.90
2023-05-18T02:26:52.361Z,99.90
2023-05-18T02:29:22.496Z,99.90
2023-05-18T02:31:50.988Z,99.90
2023-05-18T02:34:19.846Z,99.90
2023-05-18T02:36:48.837Z,99.90
2023-05-18T02:39:17.757Z,99.90
2023-05-18T02:41:46.327Z,99.90
2023-05-18T02:44:15.127Z,99.90
2023-05-18T02:46:44.998Z,99.90
2023-05-18T02:49:13.809Z,99.90
2023-05-18T02:51:42.303Z,99.90
2023-05-18T02:54:11.594Z,99.90
2023-05-18T02:56:41.811Z,99.90
2023-05-18T02:59:10.658Z,99.90
2023-05-18T03:01:41.198Z,99.90
2023-05-18T03:04:11.624Z,99.90
2023-05-18T03:06:40.315Z,99.90
2023-05-18T03:09:09.173Z,99.90
2023-05-18T03:11:37.864Z,99.90
2023-05-18T03:14:06.621Z,99.90
2023-05-18T03:16:38.860Z,99.90
2023-05-18T03:19:08.039Z,99.90
2023-05-18T03:21:38.002Z,99.90
2023-05-18T03:24:07.666Z,99.90
2023-05-18T03:26:36.231Z,99.90
2023-05-18T03:29:05.177Z,99.90
2023-05-18T03:31:33.879Z,99.90
2023-05-18T03:34:02.800Z,99.90
2023-05-18T03:36:31.302Z,99.90
2023-05-18T03:39:01.525Z,99.90
2023-05-18T03:41:30.209Z,99.90
2023-05-18T03:43:58.998Z,99.90
2023-05-18T03:46:27.711Z,99.90
2023-05-18T03:48:56.514Z,99.90
2023-05-18T03:51:26.951Z,99.90
2023-05-18T03:53:56.086Z,99.90
2023-05-18T03:56:26.211Z,99.90
2023-05-18T03:58:55.049Z,99.90
2023-05-18T04:01:24.596Z,99.90
2023-05-18T04:03:56.614Z,99.90
2023-05-18T04:06:26.256Z,99.90
2023-05-18T04:08:55.094Z,99.90
2023-05-18T04:11:23.709Z,99.90
2023-05-18T04:13:55.225Z,99.90
2023-05-18T04:16:23.767Z,99.90
2023-05-18T04:18:53.181Z,99.90
2023-05-18T04:21:21.768Z,99.90
2023-05-18T04:23:50.602Z,99.90
2023-05-18T04:26:20.171Z,99.90
2023-05-18T04:28:50.044Z,99.90
2023-05-18T04:31:20.002Z,99.90
2023-05-18T04:33:48.845Z,99.90
2023-05-18T04:36:21.126Z,99.90
2023-05-18T04:38:51.518Z,99.90
2023-05-18T04:41:22.297Z,99.90
2023-05-18T04:43:51.581Z,99.90
2023-05-18T04:46:23.286Z,99.90
2023-05-18T04:48:53.225Z,99.90
2023-05-18T04:51:22.524Z,99.90
2023-05-18T04:53:51.521Z,99.90
2023-05-18T04:56:22.841Z,99.90
2023-05-18T04:58:51.811Z,99.50
2023-05-18T05:01:21.772Z,98.50
2023-05-18T05:03:50.779Z,97.70
2023-05-18T05:06:20.993Z,97.00
2023-05-18T05:08:49.267Z,96.40
2023-05-18T05:11:17.997Z,95.70
2023-05-18T05:13:46.623Z,95.20
2023-05-18T05:16:15.422Z,95.20
2023-05-18T05:18:47.294Z,95.20
2023-05-18T05:21:16.313Z,95.10
2023-05-18T05:23:45.369Z,94.90
2023-05-18T05:26:14.178Z,94.60
2023-05-18T05:28:42.663Z,94.30
2023-05-18T05:31:11.504Z,93.80
2023-05-18T05:33:40.118Z,93.20
2023-05-18T05:36:10.848Z,92.90
2023-05-18T05:38:39.580Z,92.30
2023-05-18T05:41:08.553Z,91.80
2023-05-18T05:43:36.985Z,91.20
2023-05-18T05:46:06.365Z,90.60
2023-05-18T05:48:34.948Z,90.00
2023-05-18T05:51:03.853Z,89.10
2023-05-18T05:53:33.821Z,88.30
2023-05-18T05:56:02.568Z,87.80
2023-05-18T05:58:31.083Z,87.00
2023-05-18T06:01:00.039Z,86.50
2023-05-18T06:03:29.507Z,85.10
2023-05-18T06:05:58.730Z,84.40
2023-05-18T06:08:27.420Z,83.50
2023-05-18T06:10:57.853Z,82.60
2023-05-18T06:13:26.646Z,81.90
2023-05-18T06:15:55.616Z,81.00
2023-05-18T06:18:24.231Z,80.30
2023-05-18T06:20:52.988Z,79.00
2023-05-18T06:23:22.855Z,77.90
2023-05-18T06:25:52.047Z,76.70
2023-05-18T06:28:22.026Z,76.10
2023-05-18T06:30:51.006Z,76.40
2023-05-18T06:33:21.257Z,76.50
2023-05-18T06:35:50.142Z,75.20
2023-05-18T06:38:18.693Z,74.60
2023-05-18T06:40:47.413Z,74.10
2023-05-18T06:43:15.963Z,73.90
2023-05-18T06:45:47.558Z,72.70
2023-05-18T06:48:16.698Z,72.90
2023-05-18T06:50:45.657Z,72.80
2023-05-18T06:53:14.201Z,72.60
2023-05-18T06:55:42.961Z,72.40
2023-05-18T06:58:11.844Z,72.00
2023-05-18T07:00:40.798Z,71.90
2023-05-18T07:03:11.179Z,71.80
2023-05-18T07:05:40.120Z,70.90
2023-05-18T07:08:09.808Z,70.20
2023-05-18T07:10:38.992Z,69.70
2023-05-18T07:13:07.501Z,69.60
2023-05-18T07:15:36.716Z,69.70
2023-05-18T07:18:05.719Z,69.50
2023-05-18T07:20:36.087Z,68.80
2023-05-18T07:23:04.657Z,67.90
2023-05-18T07:25:33.604Z,66.70
2023-05-18T07:28:02.615Z,64.90
2023-05-18T07:30:31.593Z,64.40
2023-05-18T07:33:00.141Z,63.80
2023-05-18T07:35:29.369Z,62.50
2023-05-18T07:37:59.473Z,62.90
2023-05-18T07:40:28.403Z,63.40
2023-05-18T07:42:57.030Z,63.90
2023-05-18T07:45:25.868Z,64.20
2023-05-18T07:47:54.598Z,63.20
2023-05-18T07:50:23.943Z,62.60
2023-05-18T07:52:52.445Z,61.40
2023-05-18T07:55:22.867Z,61.40
2023-05-18T07:57:52.075Z,61.70
2023-05-18T08:00:21.827Z,61.20
2023-05-18T08:02:50.752Z,60.40
2023-05-18T08:05:21.315Z,60.00
2023-05-18T08:07:49.959Z,59.80
2023-05-18T08:10:19.123Z,59.80
2023-05-18T08:12:49.004Z,60.00
2023-05-18T08:15:17.804Z,60.00
2023-05-18T08:17:47.497Z,59.50
2023-05-18T08:20:17.296Z,59.20
2023-05-18T08:22:45.857Z,59.70
2023-05-18T08:25:15.053Z,60.10
2023-05-18T08:27:43.781Z,60.40
2023-05-18T08:30:15.411Z,60.00
2023-05-18T08:32:44.033Z,60.00
2023-05-18T08:35:13.083Z,60.60
2023-05-18T08:37:41.876Z,60.00
2023-05-18T08:40:13.020Z,59.90
2023-05-18T08:42:50.505Z,60.00
2023-05-18T08:45:31.943Z,60.00
2023-05-18T08:48:02.257Z,60.00
2023-05-18T08:50:33.509Z,60.40
2023-05-18T08:53:06.197Z,61.00
2023-05-18T08:55:37.524Z,61.50
2023-05-18T08:58:08.909Z,61.30
2023-05-18T09:00:39.403Z,61.10
2023-05-18T09:03:08.370Z,61.70
2023-05-18T09:05:39.339Z,60.90
2023-05-18T09:08:08.882Z,60.80
2023-05-18T09:10:38.423Z,60.90
2023-05-18T09:13:08.281Z,61.10
2023-05-18T09:15:38.700Z,60.80
2023-05-18T09:18:07.349Z,60.90
2023-05-18T09:20:36.410Z,60.80
2023-05-18T09:23:06.259Z,60.60
2023-05-18T09:25:35.842Z,61.00
2023-05-18T09:28:05.220Z,61.00
2023-05-18T09:30:42.219Z,61.30
2023-05-18T09:33:18.572Z,62.40
2023-05-18T09:35:47.921Z,62.10
2023-05-18T09:38:22.117Z,61.80
2023-05-18T09:40:52.159Z,61.80
2023-05-18T09:43:21.590Z,62.40
2023-05-18T09:45:51.892Z,62.90
2023-05-18T09:48:22.757Z,63.70
2023-05-18T09:50:53.241Z,63.60
2023-05-18T09:53:21.778Z,64.00
2023-05-18T09:55:51.442Z,64.60
2023-05-18T09:58:20.093Z,64.80
2023-05-18T10:00:56.962Z,64.90
2023-05-18T10:03:26.676Z,64.70
2023-05-18T10:05:55.687Z,65.00
2023-05-18T10:08:24.198Z,65.50
2023-05-18T10:10:53.035Z,65.70
2023-05-18T10:13:21.593Z,65.80
2023-05-18T10:15:54.414Z,66.60
2023-05-18T10:18:24.736Z,67.80
2023-05-18T10:20:56.749Z,66.90
2023-05-18T10:23:28.057Z,66.70
2023-05-18T10:25:57.069Z,66.80
2023-05-18T10:28:28.897Z,66.80
2023-05-18T10:31:00.865Z,66.30
2023-05-18T10:33:32.248Z,65.90
2023-05-18T10:36:04.002Z,65.50
2023-05-18T10:38:32.954Z,65.50
2023-05-18T10:41:02.414Z,65.80
2023-05-18T10:43:30.928Z,65.90
2023-05-18T10:46:02.630Z,65.90
2023-05-18T10:48:31.720Z,66.90
2023-05-18T10:51:00.609Z,67.20
2023-05-18T10:53:30.769Z,67.40
2023-05-18T10:55:59.683Z,67.50
2023-05-18T10:58:30.563Z,67.60
2023-05-18T11:01:03.246Z,67.90
2023-05-18T11:03:34.623Z,67.60
2023-05-18T11:06:09.198Z,67.60
2023-05-18T11:08:45.369Z,67.30
2023-05-18T11:11:15.942Z,67.60
2023-05-18T11:13:48.912Z,67.20
2023-05-18T11:16:19.792Z,67.30
2023-05-18T11:18:50.469Z,67.10
2023-05-18T11:21:51.706Z,67.00
2023-05-18T11:24:31.368Z,67.10
2023-05-18T11:27:03.682Z,67.10
2023-05-18T11:29:35.410Z,67.30
2023-05-18T11:32:06.132Z,67.70
2023-05-18T11:34:46.031Z,67.80
2023-05-18T11:37:16.445Z,67.70
2023-05-18T11:40:00.410Z,67.70
2023-05-18T11:42:34.713Z,67.90
2023-05-18T11:45:08.394Z,68.00
2023-05-18T11:47:40.585Z,67.80
2023-05-18T11:50:12.044Z,67.90
2023-05-18T11:52:48.229Z,67.90
2023-05-18T11:55:19.245Z,68.10
2023-05-18T11:57:50.270Z,68.00
2023-05-18T12:00:20.579Z,67.90
2023-05-18T12:02:52.597Z,67.60
2023-05-18T12:05:22.146Z,67.50
2023-05-18T12:07:54.839Z,67.90
2023-05-18T12:10:24.292Z,68.30
2023-05-18T12:12:54.278Z,68.60
2023-05-18T12:15:24.341Z,68.70
2023-05-18T12:17:54.810Z,68.90
2023-05-18T12:20:25.196Z,69.10
2023-05-18T12:22:56.441Z,69.10
2023-05-18T12:25:27.144Z,68.70
2023-05-18T12:27:57.857Z,68.30
2023-05-18T12:30:34.797Z,68.10
2023-05-18T12:33:07.497Z,68.00
2023-05-18T12:35:36.452Z,67.70
2023-05-18T12:38:05.725Z,67.10
2023-05-18T12:40:44.554Z,66.60
2023-05-18T12:43:14.205Z,67.20
2023-05-18T12:45:45.761Z,66.30
2023-05-18T12:48:16.265Z,65.50
2023-05-18T12:50:48.502Z,65.20
2023-05-18T12:53:17.924Z,64.80
2023-05-18T12:55:48.160Z,64.70
2023-05-18T12:58:19.179Z,64.70
2023-05-18T13:00:49.639Z,64.60
2023-05-18T13:03:22.992Z,64.40
2023-05-18T13:06:04.542Z,64.20
2023-05-18T13:08:34.751Z,64.00
2023-05-18T13:11:12.547Z,64.20
2023-05-18T13:14:04.564Z,64.20
2023-05-18T13:16:35.318Z,64.00
2023-05-18T13:19:07.696Z,64.40
2023-05-18T13:21:36.869Z,64.90
2023-05-18T13:24:06.519Z,65.10
2023-05-18T13:26:35.207Z,65.50
2023-05-18T13:29:04.134Z,65.50
2023-05-18T13:31:32.653Z,65.30
2023-05-18T13:34:01.570Z,64.90
2023-05-18T13:36:33.907Z,64.50
2023-05-18T13:39:05.674Z,64.20
2023-05-18T13:41:35.522Z,63.80
2023-05-18T13:44:04.987Z,63.40
2023-05-18T13:46:33.854Z,63.10
2023-05-18T13:49:02.718Z,63.10
2023-05-18T13:51:32.633Z,62.50
2023-05-18T13:54:01.810Z,62.30
2023-05-18T13:56:30.399Z,62.60
2023-05-18T13:58:59.295Z,62.80
2023-05-18T14:01:32.703Z,62.40
2023-05-18T14:04:01.632Z,62.40
2023-05-18T14:06:30.176Z,62.40
2023-05-18T14:09:00.384Z,62.20
2023-05-18T14:11:28.874Z,62.20
2023-05-18T14:13:57.602Z,62.60
2023-05-18T14:16:26.123Z,62.40
2023-05-18T14:18:54.971Z,62.30
2023-05-18T14:21:23.525Z,62.30
2023-05-18T14:23:52.437Z,62.40
2023-05-18T14:26:22.450Z,62.40
2023-05-18T14:28:51.252Z,62.00
2023-05-18T14:31:19.745Z,61.90
2023-05-18T14:33:48.628Z,61.80
2023-05-18T14:36:18.291Z,61.60
2023-05-18T14:38:47.946Z,61.60
2023-05-18T14:41:16.786Z,61.90
2023-05-18T14:43:47.409Z,62.00
2023-05-18T14:46:16.348Z,62.20
2023-05-18T14:48:44.906Z,62.50
2023-05-18T14:51:14.621Z,62.40
2023-05-18T14:53:43.281Z,62.50
2023-05-18T14:56:12.559Z,62.80
2023-05-18T14:58:41.285Z,62.80
2023-05-18T15:01:11.550Z,62.80
2023-05-18T15:03:40.456Z,62.70
2023-05-18T15:06:09.579Z,62.90
2023-05-18T15:08:38.231Z,63.00
2023-05-18T15:11:07.187Z,63.10
2023-05-18T15:13:35.705Z,63.30
2023-05-18T15:16:04.746Z,62.80
2023-05-18T15:18:34.695Z,62.00
2023-05-18T15:21:03.575Z,62.20
2023-05-18T15:23:32.419Z,62.40
2023-05-18T15:26:01.522Z,62.60
2023-05-18T15:28:30.247Z,62.60
2023-05-18T15:31:00.386Z,63.00
2023-05-18T15:33:29.036Z,63.40
2023-05-18T15:35:59.325Z,63.30
2023-05-18T15:38:29.542Z,63.40
2023-05-18T15:40:58.576Z,63.40
2023-05-18T15:43:27.783Z,63.60
2023-05-18T15:45:56.765Z,63.80
2023-05-18T15:48:25.522Z,63.80
2023-05-18T15:50:54.368Z,63.90
2023-05-18T15:53:24.284Z,64.10
2023-05-18T15:55:57.386Z,64.40
2023-05-18T15:58:27.736Z,64.70
2023-05-18T16:00:57.109Z,64.70
2023-05-18T16:03:25.840Z,64.70
2023-05-18T16:05:54.618Z,65.60
2023-05-18T16:08:24.601Z,65.10
2023-05-18T16:10:53.741Z,65.10
2023-05-18T16:13:25.899Z,65.20
2023-05-18T16:15:54.827Z,65.20
2023-05-18T16:18:26.039Z,65.20
2023-05-18T16:20:58.079Z,65.40
2023-05-18T16:23:27.982Z,65.50
2023-05-18T16:25:57.316Z,65.60
2023-05-18T16:28:25.853Z,65.60
2023-05-18T16:30:54.678Z,65.60
2023-05-18T16:33:25.210Z,65.80
2023-05-18T16:35:54.913Z,65.90
2023-05-18T16:38:23.396Z,66.10
2023-05-18T16:40:53.641Z,66.10
2023-05-18T16:43:22.274Z,66.30
2023-05-18T16:45:51.159Z,66.50
2023-05-18T16:48:19.690Z,66.70
2023-05-18T16:50:48.498Z,67.00
2023-05-18T16:53:17.280Z,67.20
2023-05-18T16:55:46.265Z,67.40
2023-05-18T16:58:16.414Z,67.40
2023-05-18T17:00:45.159Z,67.60
2023-05-18T17:03:14.260Z,67.70
2023-05-18T17:05:43.102Z,67.60
2023-05-18T17:08:11.803Z,67.90
2023-05-18T17:10:41.050Z,68.10
2023-05-18T17:13:09.711Z,68.30
2023-05-18T17:15:39.974Z,68.70
2023-05-18T17:18:08.631Z,68.90
2023-05-18T17:20:37.637Z,69.10
2023-05-18T17:23:06.230Z,69.40
2023-05-18T17:25:35.052Z,69.70
2023-05-18T17:28:03.582Z,69.90
2023-05-18T17:30:32.653Z,70.10
2023-05-18T17:33:02.701Z,70.40
2023-05-18T17:35:31.521Z,70.50
2023-05-18T17:38:00.094Z,70.70
2023-05-18T17:40:29.062Z,70.90
2023-05-18T17:42:58.294Z,70.80
2023-05-18T17:45:27.210Z,71.10
2023-05-18T17:47:55.759Z,71.30
2023-05-18T17:50:26.160Z,71.30
2023-05-18T17:52:54.752Z,71.50
2023-05-18T17:55:23.609Z,71.70
2023-05-18T17:57:52.921Z,72.10
2023-05-18T18:00:22.679Z,72.40
2023-05-18T18:02:51.194Z,72.80
2023-05-18T18:05:20.081Z,73.10
2023-05-18T18:07:50.151Z,73.40
2023-05-18T18:10:19.022Z,73.90
2023-05-18T18:12:47.669Z,74.20
2023-05-18T18:15:16.476Z,74.40
2023-05-18T18:17:44.986Z,74.70
2023-05-18T18:20:13.894Z,75.00
2023-05-18T18:22:42.386Z,75.30
2023-05-18T18:25:13.227Z,75.40
2023-05-18T18:27:41.772Z,75.70
2023-05-18T18:30:11.328Z,76.00
2023-05-18T18:32:40.076Z,76.20
2023-05-18T18:35:09.910Z,76.50
2023-05-18T18:37:38.631Z,76.60
2023-05-18T18:40:08.693Z,77.00
2023-05-18T18:42:38.639Z,77.30
2023-05-18T18:45:08.525Z,77.50
2023-05-18T18:47:37.040Z,77.70
2023-05-18T18:50:07.393Z,77.80
2023-05-18T18:52:36.127Z,78.00
2023-05-18T18:55:05.154Z,78.10
2023-05-18T18:57:34.521Z,78.40
2023-05-18T19:00:07.054Z,78.70
2023-05-18T19:02:35.674Z,78.90
2023-05-18T19:05:05.531Z,79.00
2023-05-18T19:07:34.272Z,79.20
2023-05-18T19:10:04.010Z,79.60
2023-05-18T19:12:33.222Z,79.60
2023-05-18T19:15:02.004Z,79.90
2023-05-18T19:17:32.158Z,79.90
2023-05-18T19:20:01.101Z,80.00
2023-05-18T19:22:29.608Z,80.20
2023-05-18T19:24:58.391Z,81.00
2023-05-18T19:27:26.948Z,80.30
2023-05-18T19:29:55.898Z,80.60
2023-05-18T19:32:24.379Z,80.60
2023-05-18T19:34:54.574Z,80.90
2023-05-18T19:37:23.165Z,81.90
2023-05-18T19:39:52.001Z,81.30
2023-05-18T19:42:20.482Z,81.30
2023-05-18T19:44:49.347Z,81.20
2023-05-18T19:47:17.844Z,81.20
2023-05-18T19:49:46.755Z,81.20
2023-05-18T19:52:18.392Z,81.20
2023-05-18T19:54:47.516Z,81.30
2023-05-18T19:57:16.052Z,81.50
2023-05-18T19:59:44.820Z,81.70
2023-05-18T20:02:13.307Z,82.00
2023-05-18T20:04:43.353Z,82.10
2023-05-18T20:07:14.083Z,82.30
2023-05-18T20:09:44.259Z,82.30
2023-05-18T20:12:12.721Z,82.60
2023-05-18T20:14:43.486Z,82.80
2023-05-18T20:17:13.154Z,82.90
2023-05-18T20:19:49.899Z,83.20
2023-05-18T20:22:18.815Z,83.20
2023-05-18T20:24:49.035Z,83.40
2023-05-18T20:27:17.741Z,83.60
2023-05-18T20:29:46.492Z,83.90
2023-05-18T20:32:15.176Z,84.20
2023-05-18T20:34:44.618Z,84.40
2023-05-18T20:37:14.143Z,84.70
2023-05-18T20:39:50.676Z,84.80
2023-05-18T20:42:22.849Z,85.10
2023-05-18T20:51:02.029Z,85.50
2023-05-18T20:53:30.904Z,85.70
2023-05-18T20:56:01.315Z,85.80
2023-05-18T20:58:30.024Z,86.20
2023-05-18T21:00:58.292Z,86.40
2023-05-18T21:03:27.022Z,86.40
2023-05-18T21:05:55.575Z,86.60
2023-05-18T21:08:25.563Z,86.60
2023-05-18T21:10:53.832Z,86.70
2023-05-18T21:13:22.473Z,86.30
2023-05-18T21:15:53.975Z,86.20
2023-05-18T21:18:22.877Z,86.50
2023-05-18T21:20:52.549Z,86.40
2023-05-18T21:23:21.045Z,86.30
2023-05-18T21:25:50.745Z,86.20
2023-05-18T21:28:20.021Z,86.00
2023-05-18T21:30:49.505Z,85.90
2023-05-18T21:33:18.299Z,85.80
2023-05-18T21:35:46.958Z,85.80
2023-05-18T21:38:53.853Z,85.80
2023-05-18T21:41:48.108Z,85.60
2023-05-18T21:44:31.263Z,85.70
2023-05-18T21:47:04.658Z,85.50
2023-05-18T21:49:42.158Z,85.50
2023-05-18T21:52:15.059Z,85.50
2023-05-18T21:54:46.857Z,85.90
2023-05-18T21:57:21.622Z,85.80
2023-05-18T22:00:00.645Z,85.90
2023-05-18T22:02:33.155Z,85.90
2023-05-18T22:05:05.588Z,85.80
2023-05-18T22:07:36.114Z,85.90
2023-05-18T22:10:08.293Z,86.10
2023-05-18T22:12:45.097Z,86.50
2023-05-18T22:15:22.919Z,86.60
2023-05-18T22:18:02.363Z,86.60
2023-05-18T22:20:41.350Z,86.80
2023-05-18T22:23:14.956Z,86.80
2023-05-18T22:25:50.680Z,86.80
2023-05-18T22:28:29.388Z,87.10
2023-05-18T22:31:04.946Z,87.30
2023-05-18T22:33:37.951Z,87.00
2023-05-18T22:36:11.337Z,87.30
2023-05-18T22:38:46.297Z,87.30
2023-05-18T22:41:26.514Z,87.50
2023-05-18T22:43:58.278Z,87.60
2023-05-18T22:46:55.697Z,87.80
2023-05-18T22:49:31.589Z,87.80
2023-05-18T22:52:05.360Z,88.10
2023-05-18T22:54:35.994Z,88.10
2023-05-18T22:57:06.607Z,88.30
2023-05-18T22:59:39.723Z,88.50
2023-05-18T23:02:11.857Z,88.70
2023-05-18T23:04:43.017Z,88.80
2023-05-18T23:07:14.486Z,89.00
2023-05-18T23:09:52.846Z,89.10
2023-05-18T23:12:25.753Z,89.30
2023-05-18T23:15:04.302Z,89.40
2023-05-18T23:17:40.004Z,90.10
2023-05-18T23:20:14.637Z,89.80
2023-05-18T23:22:51.925Z,89.80
2023-05-18T23:25:24.260Z,89.60
2023-05-18T23:28:07.299Z,90.00
2023-05-18T23:30:39.316Z,90.00
2023-05-18T23:33:15.244Z,90.00
2023-05-18T23:35:49.686Z,90.10
2023-05-18T23:38:31.896Z,90.10
2023-05-18T23:41:04.079Z,90.20
2023-05-18T23:43:38.608Z,90.20
2023-05-18T23:46:11.887Z,90.30
2023-05-18T23:48:50.518Z,90.40
2023-05-18T23:51:24.405Z,90.40
2023-05-18T23:54:06.262Z,90.50
2023-05-18T23:56:37.073Z,90.60
2023-05-18T23:59:14.639Z,90.60
